createdAt,value
2019-03-28T00:00:52.173Z,54.50
2019-03-28T00:03:21.984Z,42.00
2019-03-28T00:05:51.685Z,41.75
2019-03-28T00:08:21.331Z,48.00
2019-03-28T00:10:51.060Z,48.25
2019-03-28T00:13:20.626Z,56.75
2019-03-28T00:15:50.373Z,51.50
2019-03-28T00:18:21.024Z,51.00
2019-03-28T00:20:50.736Z,50.00
2019-03-28T00:23:26.179Z,54.00
2019-03-28T00:25:55.862Z,52.25
2019-03-28T00:28:25.480Z,47.75
2019-03-28T00:30:55.083Z,52.00
2019-03-28T00:33:24.652Z,55.75
2019-03-28T00:35:54.285Z,42.75
2019-03-28T00:38:23.908Z,48.25
2019-03-28T00:40:55.369Z,53.75
2019-03-28T00:43:25.321Z,48.25
2019-03-28T00:45:55.127Z,49.50
2019-03-28T00:48:24.755Z,47.50
2019-03-28T00:50:54.357Z,61.00
2019-03-28T00:53:24.025Z,44.75
2019-03-28T00:55:53.721Z,54.00
2019-03-28T00:58:23.370Z,42.25
2019-03-28T01:00:53.112Z,58.00
2019-03-28T01:03:22.704Z,48.00
2019-03-28T01:05:52.536Z,55.75
2019-03-28T01:08:22.207Z,50.25
2019-03-28T01:10:51.865Z,48.75
2019-03-28T01:13:21.991Z,57.00
2019-03-28T01:15:51.711Z,48.25
2019-03-28T01:18:22.461Z,63.00
2019-03-28T01:20:52.138Z,57.50
2019-03-28T01:23:21.725Z,54.75
2019-03-28T01:25:51.412Z,56.00
2019-03-28T01:28:21.012Z,64.50
2019-03-28T01:30:50.589Z,57.50
2019-03-28T01:33:20.172Z,61.25
2019-03-28T01:35:49.817Z,66.50
2019-03-28T01:38:20.217Z,58.75
2019-03-28T01:40:50.117Z,65.75
2019-03-28T01:43:19.823Z,65.50
2019-03-28T01:45:49.447Z,58.00
2019-03-28T01:48:19.086Z,65.75
2019-03-28T01:50:48.799Z,66.25
2019-03-28T01:53:18.445Z,70.00
2019-03-28T01:55:48.058Z,60.00
2019-03-28T01:58:17.834Z,68.25
2019-03-28T02:00:47.469Z,71.75
2019-03-28T02:03:17.197Z,70.25
2019-03-28T02:05:46.807Z,86.00
2019-03-28T02:08:16.384Z,84.50
2019-03-28T02:10:45.962Z,71.75
2019-03-28T02:13:15.660Z,86.50
2019-03-28T02:15:45.245Z,76.50
2019-03-28T02:18:14.820Z,86.50
2019-03-28T02:20:44.426Z,74.00
2019-03-28T02:23:15.159Z,79.75
2019-03-28T02:25:44.799Z,69.50
2019-03-28T02:28:16.176Z,65.25
2019-03-28T02:30:45.935Z,85.50
2019-03-28T02:33:15.568Z,81.75
2019-03-28T02:35:45.155Z,85.00
2019-03-28T02:38:14.757Z,88.50
2019-03-28T02:40:44.364Z,74.50
2019-03-28T02:43:14.023Z,90.50
2019-03-28T02:45:43.786Z,85.00
2019-03-28T02:48:13.398Z,93.00
2019-03-28T02:50:43.061Z,86.00
2019-03-28T02:53:13.668Z,91.50
2019-03-28T02:55:44.707Z,82.50
2019-03-28T02:58:14.326Z,91.75
2019-03-28T03:00:43.931Z,85.25
2019-03-28T03:03:19.344Z,95.75
2019-03-28T03:05:49.017Z,84.50
2019-03-28T03:08:18.610Z,88.50
2019-03-28T03:10:48.235Z,78.75
2019-03-28T03:13:17.939Z,91.25
2019-03-28T03:15:47.697Z,90.00
2019-03-28T03:18:21.271Z,89.75
2019-03-28T03:20:48.680Z,85.50
2019-03-28T03:23:18.253Z,78.25
2019-03-28T03:25:47.867Z,88.25
2019-03-28T03:28:17.490Z,81.75
2019-03-28T03:30:47.099Z,84.50
2019-03-28T03:33:16.739Z,71.50
2019-03-28T03:35:46.391Z,82.25
2019-03-28T03:38:16.016Z,93.50
2019-03-28T03:40:45.762Z,85.50
2019-03-28T03:43:15.504Z,88.50
2019-03-28T03:45:45.203Z,98.00
2019-03-28T03:48:14.892Z,68.25
2019-03-28T03:50:44.600Z,74.25
2019-03-28T03:53:14.222Z,81.75
2019-03-28T03:55:43.808Z,80.75
2019-03-28T03:58:16.122Z,75.50
2019-03-28T04:00:46.660Z,85.50
2019-03-28T04:03:16.356Z,84.75
2019-03-28T04:05:46.025Z,78.25
2019-03-28T04:08:15.654Z,80.00
2019-03-28T04:10:45.323Z,78.25
2019-03-28T04:13:15.001Z,82.25
2019-03-28T04:15:44.584Z,81.50
2019-03-28T04:18:14.272Z,72.50
2019-03-28T04:20:43.859Z,81.50
2019-03-28T04:23:13.472Z,76.25
2019-03-28T04:25:43.140Z,83.00
2019-03-28T04:28:12.987Z,79.75
2019-03-28T04:30:42.636Z,70.50
2019-03-28T04:33:12.180Z,80.25
2019-03-28T04:35:43.871Z,79.50
2019-03-28T04:38:13.510Z,75.50
2019-03-28T04:40:45.203Z,70.00
2019-03-28T04:43:14.883Z,75.50
2019-03-28T04:45:44.533Z,84.75
2019-03-28T04:48:14.123Z,93.50
2019-03-28T04:50:43.815Z,74.75
2019-03-28T04:53:13.480Z,73.00
2019-03-28T04:55:43.131Z,95.75
2019-03-28T04:58:12.698Z,86.75
2019-03-28T05:00:42.334Z,94.50
2019-03-28T05:03:11.941Z,92.00
2019-03-28T05:05:41.561Z,102.00
2019-03-28T05:08:11.206Z,96.25
2019-03-28T05:10:41.570Z,91.00
2019-03-28T05:13:11.369Z,87.75
2019-03-28T05:15:41.001Z,86.75
2019-03-28T05:18:10.558Z,86.50
2019-03-28T05:20:41.789Z,91.50
2019-03-28T05:23:11.375Z,74.25
2019-03-28T05:25:41.110Z,93.75
2019-03-28T05:28:10.697Z,97.00
2019-03-28T05:30:40.383Z,84.25
2019-03-28T05:33:09.973Z,92.50
2019-03-28T05:35:39.607Z,101.75
2019-03-28T05:38:09.219Z,83.50
2019-03-28T05:40:38.796Z,93.00
2019-03-28T05:43:11.357Z,90.50
2019-03-28T05:45:41.055Z,89.75
2019-03-28T05:48:10.744Z,93.25
2019-03-28T05:50:40.420Z,89.75
2019-03-28T05:53:10.034Z,96.50
2019-03-28T05:55:39.643Z,90.00
2019-03-28T05:58:09.735Z,94.25
2019-03-28T06:00:40.286Z,95.50
2019-03-28T06:03:10.037Z,85.50
2019-03-28T06:05:39.664Z,101.50
2019-03-28T06:08:09.366Z,82.75
2019-03-28T06:10:38.980Z,92.50
2019-03-28T06:13:08.589Z,91.75
2019-03-28T06:15:40.893Z,91.25
2019-03-28T06:18:09.494Z,98.50
2019-03-28T06:20:39.185Z,94.25
2019-03-28T06:23:08.839Z,102.50
2019-03-28T06:25:40.990Z,102.50
2019-03-28T06:28:10.704Z,98.00
2019-03-28T06:30:40.430Z,90.25
2019-03-28T06:33:10.121Z,101.00
2019-03-28T06:35:39.783Z,96.00
2019-03-28T06:40:44.109Z,99.00
2019-03-28T06:43:13.710Z,98.00
2019-03-28T06:45:43.366Z,94.50
2019-03-28T06:48:12.968Z,96.00
2019-03-28T06:50:42.568Z,96.00
2019-03-28T06:53:12.647Z,97.00
2019-03-28T06:55:44.928Z,105.50
2019-03-28T06:58:14.582Z,92.00
2019-03-28T07:00:44.158Z,90.00
2019-03-28T07:03:13.838Z,98.00
2019-03-28T07:05:43.475Z,99.50
2019-03-28T07:08:13.183Z,93.25
2019-03-28T07:10:42.953Z,90.25
2019-03-28T07:13:12.584Z,114.75
2019-03-28T07:15:44.343Z,99.00
2019-03-28T07:18:14.010Z,98.75
2019-03-28T07:20:43.691Z,96.75
2019-03-28T07:23:12.929Z,101.00
2019-03-28T07:25:44.696Z,89.00
2019-03-28T07:28:14.286Z,91.75
2019-03-28T07:30:43.885Z,89.50
2019-03-28T07:33:13.558Z,98.00
2019-03-28T07:35:43.149Z,92.50
2019-03-28T07:38:12.880Z,90.25
2019-03-28T07:40:42.487Z,89.50
2019-03-28T07:43:12.179Z,89.00
2019-03-28T07:45:41.746Z,79.50
2019-03-28T07:48:11.392Z,89.00
2019-03-28T07:50:42.579Z,93.75
2019-03-28T07:53:12.445Z,84.25
2019-03-28T07:55:42.268Z,85.25
2019-03-28T07:58:11.918Z,83.75
2019-03-28T08:00:41.498Z,86.25
2019-03-28T08:03:11.127Z,90.75
2019-03-28T08:05:49.361Z,91.75
2019-03-28T08:08:19.077Z,86.25
2019-03-28T08:10:48.712Z,87.50
2019-03-28T08:13:18.316Z,86.50
2019-03-28T08:15:48.063Z,74.75
2019-03-28T08:18:17.668Z,67.00
2019-03-28T08:20:47.360Z,81.25
2019-03-28T08:23:16.960Z,70.50
2019-03-28T08:25:46.675Z,67.00
2019-03-28T08:28:16.245Z,77.50
2019-03-28T08:30:45.832Z,83.75
2019-03-28T08:33:15.539Z,80.25
2019-03-28T08:35:45.173Z,86.00
2019-03-28T08:38:14.832Z,64.25
2019-03-28T08:40:46.003Z,72.00
2019-03-28T08:43:15.673Z,80.25
2019-03-28T08:45:45.420Z,63.75
2019-03-28T08:48:15.507Z,66.00
2019-03-28T08:50:45.093Z,70.25
2019-03-28T08:53:15.779Z,55.75
2019-03-28T08:55:46.418Z,62.00
2019-03-28T08:58:16.059Z,56.25
2019-03-28T09:00:52.295Z,57.50
2019-03-28T09:03:17.060Z,66.50
2019-03-28T09:05:46.660Z,63.75
2019-03-28T09:08:16.328Z,57.50
2019-03-28T09:10:46.054Z,58.00
2019-03-28T09:13:15.741Z,67.25
2019-03-28T09:15:45.674Z,68.25
2019-03-28T09:18:15.249Z,73.50
2019-03-28T09:20:44.948Z,63.50
2019-03-28T09:23:14.543Z,72.25
2019-03-28T09:25:44.140Z,57.25
2019-03-28T09:28:13.726Z,68.25
2019-03-28T09:30:49.186Z,56.00
2019-03-28T09:33:15.861Z,49.00
2019-03-28T09:35:45.578Z,52.50
2019-03-28T09:38:15.462Z,50.25
2019-03-28T09:40:45.196Z,47.75
2019-03-28T09:43:14.807Z,37.50
2019-03-28T09:45:44.422Z,36.50
2019-03-28T09:48:14.023Z,40.50
2019-03-28T09:50:43.743Z,39.75
2019-03-28T09:53:13.413Z,33.50
2019-03-28T09:55:42.978Z,40.75
2019-03-28T09:58:12.688Z,39.00
2019-03-28T10:00:42.283Z,48.50
2019-03-28T10:03:11.993Z,42.25
2019-03-28T10:05:41.650Z,41.00
2019-03-28T10:08:11.308Z,43.25
2019-03-28T10:10:40.991Z,40.00
2019-03-28T10:13:10.576Z,40.50
2019-03-28T10:15:41.022Z,37.25
2019-03-28T10:18:10.623Z,43.00
2019-03-28T10:20:40.294Z,39.50
2019-03-28T10:23:09.961Z,40.50
2019-03-28T10:25:40.576Z,46.50
2019-03-28T10:28:10.427Z,39.00
2019-03-28T10:30:41.743Z,39.50
2019-03-28T10:33:11.614Z,30.00
2019-03-28T10:35:41.349Z,38.50
2019-03-28T10:38:12.316Z,41.25
2019-03-28T10:40:41.928Z,34.75
2019-03-28T10:43:11.514Z,41.00
2019-03-28T10:45:41.160Z,34.25
2019-03-28T10:48:10.946Z,48.50
2019-03-28T10:50:43.895Z,52.50
2019-03-28T10:53:12.050Z,49.00
2019-03-28T10:55:42.567Z,42.25
2019-03-28T10:58:18.897Z,44.25
2019-03-28T11:00:43.846Z,43.50
2019-03-28T11:03:13.535Z,38.25
2019-03-28T11:05:46.178Z,45.00
2019-03-28T11:08:16.533Z,34.25
2019-03-28T11:10:46.227Z,44.25
2019-03-28T11:13:15.912Z,44.50
2019-03-28T11:15:45.573Z,44.00
2019-03-28T11:18:15.176Z,32.75
2019-03-28T11:20:44.830Z,37.25
2019-03-28T11:23:14.406Z,48.00
2019-03-28T11:25:44.001Z,34.75
2019-03-28T11:28:13.768Z,39.75
2019-03-28T11:30:43.361Z,45.75
2019-03-28T11:33:13.022Z,50.25
2019-03-28T11:35:42.723Z,36.00
2019-03-28T11:38:12.310Z,43.50
2019-03-28T11:40:43.011Z,49.75
2019-03-28T11:43:12.797Z,40.00
2019-03-28T11:45:42.543Z,48.00
2019-03-28T11:48:12.150Z,46.50
2019-03-28T11:50:41.773Z,48.25
2019-03-28T11:53:11.370Z,40.50
2019-03-28T11:55:40.981Z,48.00
2019-03-28T11:58:11.522Z,44.50
2019-03-28T12:00:41.427Z,52.25
2019-03-28T12:03:11.130Z,43.75
2019-03-28T12:05:40.721Z,37.75
2019-03-28T12:08:10.308Z,41.50
2019-03-28T12:10:39.955Z,35.75
2019-03-28T12:13:09.544Z,27.50
2019-03-28T12:15:39.175Z,38.25
2019-03-28T12:18:08.779Z,34.50
2019-03-28T12:20:38.346Z,31.25
2019-03-28T12:23:08.062Z,33.75
2019-03-28T12:25:37.675Z,38.75
2019-03-28T12:28:07.387Z,34.25
2019-03-28T12:30:37.158Z,31.25
2019-03-28T12:33:06.803Z,32.75
2019-03-28T12:35:36.495Z,29.50
2019-03-28T12:38:06.109Z,36.75
2019-03-28T12:40:35.713Z,24.75
2019-03-28T12:43:05.375Z,26.75
2019-03-28T12:45:35.069Z,28.25
2019-03-28T12:48:04.729Z,30.50
2019-03-28T12:50:34.311Z,27.50
2019-03-28T12:53:04.025Z,32.25
2019-03-28T12:55:33.792Z,23.75
2019-03-28T12:58:03.483Z,31.25
2019-03-28T13:00:36.986Z,24.00
2019-03-28T13:03:07.240Z,27.25
2019-03-28T13:05:37.026Z,38.25
2019-03-28T13:08:06.838Z,30.75
2019-03-28T13:10:36.559Z,33.00
2019-03-28T13:13:06.443Z,40.50
2019-03-28T13:15:36.061Z,32.75
2019-03-28T13:18:05.854Z,38.25
2019-03-28T13:20:35.520Z,37.00
2019-03-28T13:23:05.656Z,39.00
2019-03-28T13:25:35.259Z,41.25
2019-03-28T13:28:05.034Z,41.00
2019-03-28T13:30:35.973Z,38.00
2019-03-28T13:33:05.685Z,49.00
2019-03-28T13:35:35.603Z,47.00
2019-03-28T13:38:05.285Z,50.00
2019-03-28T13:40:34.798Z,43.50
2019-03-28T13:43:04.790Z,41.00
2019-03-28T13:45:34.493Z,45.75
2019-03-28T13:48:04.107Z,36.25
2019-03-28T13:50:33.686Z,41.00
2019-03-28T13:53:03.209Z,36.75
2019-03-28T13:55:32.760Z,37.75
2019-03-28T13:58:02.326Z,38.25
2019-03-28T14:00:35.700Z,38.00
2019-03-28T14:03:05.481Z,36.50
2019-03-28T14:05:35.092Z,36.75
2019-03-28T14:08:04.702Z,37.50
2019-03-28T14:10:34.893Z,41.50
2019-03-28T14:13:04.528Z,43.00
2019-03-28T14:15:34.143Z,44.00
2019-03-28T14:18:03.724Z,42.75
2019-03-28T14:20:33.296Z,35.50
2019-03-28T14:23:02.831Z,35.50
2019-03-28T14:25:32.406Z,41.50
2019-03-28T14:28:01.980Z,41.50
2019-03-28T14:30:31.620Z,39.00
2019-03-28T14:33:11.265Z,47.25
2019-03-28T14:35:32.432Z,44.50
2019-03-28T14:38:01.965Z,44.75
2019-03-28T14:40:31.523Z,44.50
2019-03-28T14:43:01.100Z,51.00
2019-03-28T14:45:30.702Z,55.75
2019-03-28T14:48:00.254Z,41.25
2019-03-28T14:50:37.581Z,52.50
2019-03-28T14:53:07.366Z,46.50
2019-03-28T14:55:37.040Z,46.75
2019-03-28T14:58:07.230Z,52.75
2019-03-28T15:01:01.621Z,45.75
2019-03-28T15:03:31.280Z,43.75
2019-03-28T15:06:01.601Z,49.25
2019-03-28T15:08:31.155Z,45.50
2019-03-28T15:11:01.696Z,45.50
2019-03-28T15:13:31.650Z,52.25
2019-03-28T15:16:01.190Z,46.25
2019-03-28T15:18:33.210Z,47.75
2019-03-28T15:21:02.757Z,43.75
2019-03-28T15:23:32.291Z,45.00
2019-03-28T15:26:06.322Z,39.00
2019-03-28T15:28:35.973Z,41.75
2019-03-28T15:31:05.627Z,44.25
2019-03-28T15:33:39.922Z,37.25
2019-03-28T15:36:06.508Z,42.00
2019-03-28T15:38:36.056Z,43.75
2019-03-28T15:41:05.702Z,33.50
2019-03-28T15:43:35.337Z,37.75
2019-03-28T15:46:04.905Z,48.00
2019-03-28T15:48:35.571Z,41.75
2019-03-28T15:51:05.317Z,53.75
2019-03-28T15:53:34.871Z,50.25
2019-03-28T15:56:04.846Z,43.00
2019-03-28T15:58:34.429Z,65.25
2019-03-28T16:01:04.214Z,53.25
2019-03-28T16:03:33.750Z,41.25
2019-03-28T16:06:05.384Z,46.25
2019-03-28T16:08:34.955Z,38.25
2019-03-28T16:11:04.596Z,42.50
2019-03-28T16:13:37.379Z,44.50
2019-03-28T16:16:05.658Z,51.00
2019-03-28T16:18:35.210Z,41.50
2019-03-28T16:21:04.754Z,38.75
2019-03-28T16:23:34.327Z,46.25
2019-03-28T16:26:03.971Z,42.00
2019-03-28T16:28:33.535Z,39.75
2019-03-28T16:31:03.102Z,48.25
2019-03-28T16:33:32.766Z,40.25
2019-03-28T16:36:02.325Z,41.25
2019-03-28T16:38:33.050Z,34.75
2019-03-28T16:41:02.614Z,44.75
2019-03-28T16:43:32.228Z,56.00
2019-03-28T16:46:01.859Z,61.25
2019-03-28T16:48:31.413Z,43.75
2019-03-28T16:51:01.084Z,40.00
2019-03-28T16:53:32.486Z,42.00
2019-03-28T16:56:02.069Z,47.00
2019-03-28T16:58:31.924Z,43.50
2019-03-28T17:01:01.490Z,43.25
2019-03-28T17:03:31.143Z,38.00
2019-03-28T17:06:00.851Z,38.25
2019-03-28T17:08:32.634Z,49.00
2019-03-28T17:13:37.220Z,40.75
2019-03-28T17:16:06.963Z,58.75
2019-03-28T17:18:36.500Z,44.25
2019-03-28T17:21:08.400Z,47.00
2019-03-28T17:23:37.946Z,37.75
2019-03-28T17:26:10.310Z,46.25
2019-03-28T17:28:39.882Z,44.00
2019-03-28T17:31:09.710Z,34.75
2019-03-28T17:33:39.402Z,33.25
2019-03-28T17:36:09.037Z,40.25
2019-03-28T17:38:38.553Z,33.50
2019-03-28T17:41:08.198Z,32.75
2019-03-28T17:43:37.756Z,39.50
2019-03-28T17:46:12.067Z,36.00
2019-03-28T17:48:40.021Z,43.00
2019-03-28T17:51:09.753Z,42.50
2019-03-28T17:53:39.709Z,35.00
2019-03-28T17:56:09.480Z,39.50
2019-03-28T17:58:39.012Z,37.50
2019-03-28T18:01:08.846Z,40.00
2019-03-28T18:03:38.453Z,38.75
2019-03-28T18:06:08.713Z,35.25
2019-03-28T18:08:38.655Z,47.00
2019-03-28T18:11:08.225Z,38.50
2019-03-28T18:13:37.804Z,42.75
2019-03-28T18:16:07.688Z,44.25
2019-03-28T18:18:37.643Z,43.25
2019-03-28T18:21:07.348Z,42.00
2019-03-28T18:23:36.920Z,45.00
2019-03-28T18:26:06.542Z,43.50
2019-03-28T18:28:36.120Z,45.25
2019-03-28T18:31:05.809Z,50.50
2019-03-28T18:36:10.935Z,45.50
2019-03-28T18:38:40.613Z,47.00
2019-03-28T18:41:10.175Z,42.25
2019-03-28T18:43:39.687Z,46.25
2019-03-28T18:46:09.328Z,45.50
2019-03-28T18:48:38.877Z,41.00
2019-03-28T18:51:08.514Z,48.50
2019-03-28T18:53:38.160Z,53.50
2019-03-28T18:56:07.842Z,43.75
2019-03-28T18:58:37.470Z,47.50
2019-03-28T19:01:09.698Z,37.50
2019-03-28T19:03:39.278Z,45.25
2019-03-28T19:06:14.943Z,45.50
2019-03-28T19:08:44.812Z,52.50
2019-03-28T19:11:14.429Z,61.00
2019-03-28T19:13:44.111Z,53.00
2019-03-28T19:16:13.745Z,51.50
2019-03-28T19:18:43.319Z,47.00
2019-03-28T19:21:13.061Z,55.25
2019-03-28T19:23:42.662Z,43.25
2019-03-28T19:26:12.265Z,54.75
2019-03-28T19:28:49.566Z,51.75
2019-03-28T19:31:19.027Z,59.00
2019-03-28T19:33:48.557Z,46.50
2019-03-28T19:36:18.694Z,59.75
2019-03-28T19:38:50.864Z,63.25
2019-03-28T19:41:20.539Z,63.00
2019-03-28T19:43:50.648Z,57.75
2019-03-28T19:46:20.287Z,55.25
2019-03-28T19:48:49.843Z,54.00
2019-03-28T19:51:19.433Z,61.25
2019-03-28T19:53:49.142Z,61.25
2019-03-28T19:56:20.906Z,60.00
2019-03-28T19:58:52.754Z,69.75
2019-03-28T20:01:22.465Z,65.00
2019-03-28T20:03:52.636Z,62.00
2019-03-28T20:06:23.444Z,58.25
2019-03-28T20:08:53.574Z,69.25
2019-03-28T20:11:23.348Z,61.00
2019-03-28T20:13:52.984Z,71.50
2019-03-28T20:16:22.556Z,73.00
2019-03-28T20:18:52.407Z,81.50
2019-03-28T20:21:22.049Z,66.25
2019-03-28T20:23:51.567Z,78.00
2019-03-28T20:26:21.174Z,74.00
2019-03-28T20:28:50.804Z,80.00
2019-03-28T20:31:20.366Z,70.50
2019-03-28T20:33:50.094Z,75.50
2019-03-28T20:36:37.018Z,66.50
2019-03-28T20:39:03.217Z,75.50
2019-03-28T20:41:22.232Z,67.25
2019-03-28T20:46:24.184Z,80.00
2019-03-28T20:48:53.811Z,82.50
2019-03-28T20:51:24.695Z,82.50
2019-03-28T20:53:54.443Z,86.75
2019-03-28T20:56:24.074Z,88.25
2019-03-28T20:58:54.367Z,81.50
2019-03-28T21:01:24.562Z,77.25
2019-03-28T21:03:54.706Z,85.00
2019-03-28T21:06:24.328Z,69.50
2019-03-28T21:08:53.899Z,87.75
2019-03-28T21:11:23.512Z,73.25
2019-03-28T21:13:53.100Z,75.50
2019-03-28T21:16:22.885Z,84.00
2019-03-28T21:18:54.251Z,74.00
2019-03-28T21:21:25.266Z,77.75
2019-03-28T21:23:55.006Z,80.25
2019-03-28T21:26:24.545Z,80.75
2019-03-28T21:28:54.106Z,74.25
2019-03-28T21:31:26.468Z,73.00
2019-03-28T21:33:56.137Z,76.75
2019-03-28T21:36:30.133Z,81.50
2019-03-28T21:38:57.108Z,76.75
2019-03-28T21:41:26.794Z,74.25
2019-03-28T21:43:56.903Z,86.00
2019-03-28T21:46:26.503Z,94.25
2019-03-28T21:48:56.103Z,90.50
2019-03-28T21:51:25.739Z,94.00
2019-03-28T21:53:55.303Z,89.75
2019-03-28T21:56:25.948Z,95.50
2019-03-28T21:58:56.206Z,94.50
2019-03-28T22:01:26.465Z,87.00
2019-03-28T22:03:56.095Z,90.00
2019-03-28T22:06:27.238Z,94.25
2019-03-28T22:08:56.823Z,92.00
2019-03-28T22:11:26.600Z,79.50
2019-03-28T22:13:56.354Z,90.00
2019-03-28T22:16:26.315Z,79.50
2019-03-28T22:18:55.884Z,76.00
2019-03-28T22:21:27.520Z,87.50
2019-03-28T22:23:57.278Z,72.50
2019-03-28T22:26:27.195Z,80.00
2019-03-28T22:28:56.785Z,84.00
2019-03-28T22:31:26.735Z,89.25
2019-03-28T22:33:56.648Z,91.25
2019-03-28T22:36:26.381Z,93.75
2019-03-28T22:38:56.172Z,90.00
2019-03-28T22:41:28.675Z,81.00
2019-03-28T22:43:58.923Z,78.75
2019-03-28T22:46:28.719Z,81.75
2019-03-28T22:48:58.250Z,78.00
2019-03-28T22:51:27.807Z,93.75
2019-03-28T22:53:57.461Z,75.25
2019-03-28T22:56:27.101Z,67.50
2019-03-28T22:58:56.774Z,88.75
2019-03-28T23:01:26.685Z,81.25
2019-03-28T23:03:56.339Z,87.00
2019-03-28T23:06:25.997Z,88.50
2019-03-28T23:08:55.861Z,87.25
2019-03-28T23:11:25.483Z,94.75
2019-03-28T23:16:23.807Z,95.50
2019-03-28T23:18:53.412Z,92.50
2019-03-28T23:21:23.069Z,92.75
2019-03-28T23:23:54.126Z,92.50
2019-03-28T23:26:23.765Z,88.50
2019-03-28T23:28:53.345Z,90.75
2019-03-28T23:34:10.505Z,90.00
2019-03-28T23:36:40.079Z,85.75
2019-03-28T23:39:09.770Z,79.25
2019-03-28T23:41:39.352Z,89.75
2019-03-28T23:44:08.996Z,85.00
2019-03-28T23:46:40.084Z,82.50
2019-03-28T23:49:09.678Z,85.00
2019-03-28T23:51:39.339Z,86.25
2019-03-28T23:54:08.941Z,100.75
2019-03-28T23:56:41.004Z,89.50
2019-03-28T23:59:13.292Z,89.75
